sensor_id;sensor_type;location;lat;lon;timestamp;pressure;altitude;pressure_sealevel;temperature;humidity
61086;BME280;46967;48.876;2.136;2022-07-09T00:00:51;102741.03;;;19.76;60.74
61086;BME280;46967;48.876;2.136;2022-07-09T00:03:16;102734.94;;;19.75;60.82
61086;BME280;46967;48.876;2.136;2022-07-09T00:05:41;102736.66;;;19.76;60.59
61086;BME280;46967;48.876;2.136;2022-07-09T00:08:07;102740.97;;;19.79;60.92
61086;BME280;46967;48.876;2.136;2022-07-09T00:10:32;102741.88;;;19.78;60.60
61086;BME280;46967;48.876;2.136;2022-07-09T00:12:57;102739.28;;;19.76;61.00
61086;BME280;46967;48.876;2.136;2022-07-09T00:15:23;102734.97;;;19.73;60.73
61086;BME280;46967;48.876;2.136;2022-07-09T00:17:50;102741.16;;;19.72;61.12
61086;BME280;46967;48.876;2.136;2022-07-09T00:20:15;102727.31;;;19.67;61.13
61086;BME280;46967;48.876;2.136;2022-07-09T00:22:41;102732.53;;;19.69;61.15
61086;BME280;46967;48.876;2.136;2022-07-09T00:25:06;102725.59;;;19.66;61.27
61086;BME280;46967;48.876;2.136;2022-07-09T00:27:32;102724.84;;;19.63;61.34
61086;BME280;46967;48.876;2.136;2022-07-09T00:29:57;102726.88;;;19.56;61.25
61086;BME280;46967;48.876;2.136;2022-07-09T00:32:22;102722.56;;;19.53;61.06
61086;BME280;46967;48.876;2.136;2022-07-09T00:34:48;102726.97;;;19.53;61.39
61086;BME280;46967;48.876;2.136;2022-07-09T00:37:13;102722.66;;;19.50;61.54
61086;BME280;46967;48.876;2.136;2022-07-09T00:39:38;102723.66;;;19.48;61.47
61086;BME280;46967;48.876;2.136;2022-07-09T00:42:05;102725.31;;;19.50;62.39
61086;BME280;46967;48.876;2.136;2022-07-09T00:44:30;102723.44;;;19.54;61.98
61086;BME280;46967;48.876;2.136;2022-07-09T00:46:57;102725.94;;;19.57;61.88
61086;BME280;46967;48.876;2.136;2022-07-09T00:49:22;102721.47;;;19.59;62.00
61086;BME280;46967;48.876;2.136;2022-07-09T00:51:48;102725.94;;;19.57;61.72
61086;BME280;46967;48.876;2.136;2022-07-09T00:54:13;102724.34;;;19.53;61.54
61086;BME280;46967;48.876;2.136;2022-07-09T00:56:39;102723.66;;;19.48;62.12
61086;BME280;46967;48.876;2.136;2022-07-09T00:59:05;102720.44;;;19.40;62.15
61086;BME280;46967;48.876;2.136;2022-07-09T01:01:35;102718.06;;;19.33;62.22
61086;BME280;46967;48.876;2.136;2022-07-09T01:04:01;102726.00;;;19.32;62.33
61086;BME280;46967;48.876;2.136;2022-07-09T01:06:26;102723.47;;;19.29;62.54
61086;BME280;46967;48.876;2.136;2022-07-09T01:08:51;102724.34;;;19.29;62.44
61086;BME280;46967;48.876;2.136;2022-07-09T01:11:17;102704.41;;;19.22;62.79
61086;BME280;46967;48.876;2.136;2022-07-09T01:13:42;102708.97;;;19.17;63.38
61086;BME280;46967;48.876;2.136;2022-07-09T01:16:12;102708.34;;;19.10;63.44
61086;BME280;46967;48.876;2.136;2022-07-09T01:18:38;102713.78;;;19.06;63.69
61086;BME280;46967;48.876;2.136;2022-07-09T01:21:04;102705.97;;;19.03;64.01
61086;BME280;46967;48.876;2.136;2022-07-09T01:23:30;102699.88;;;19.02;63.79
61086;BME280;46967;48.876;2.136;2022-07-09T01:25:55;102707.75;;;19.02;64.01
61086;BME280;46967;48.876;2.136;2022-07-09T01:28:20;102701.69;;;19.00;64.51
61086;BME280;46967;48.876;2.136;2022-07-09T01:30:46;102698.09;;;19.03;64.28
61086;BME280;46967;48.876;2.136;2022-07-09T01:33:11;102704.31;;;19.00;64.34
61086;BME280;46967;48.876;2.136;2022-07-09T01:35:38;102698.41;;;18.93;64.58
61086;BME280;46967;48.876;2.136;2022-07-09T01:38:03;102692.31;;;18.93;65.24
61086;BME280;46967;48.876;2.136;2022-07-09T01:40:29;102694.09;;;18.92;65.08
61086;BME280;46967;48.876;2.136;2022-07-09T01:42:54;102694.03;;;18.94;64.75
61086;BME280;46967;48.876;2.136;2022-07-09T01:45:19;102688.16;;;18.86;65.01
61086;BME280;46967;48.876;2.136;2022-07-09T01:47:45;102695.16;;;18.87;65.69
61086;BME280;46967;48.876;2.136;2022-07-09T01:50:10;102695.03;;;18.90;65.43
61086;BME280;46967;48.876;2.136;2022-07-09T01:52:36;102683.63;;;18.91;65.04
61086;BME280;46967;48.876;2.136;2022-07-09T01:55:02;102677.41;;;18.92;64.98
61086;BME280;46967;48.876;2.136;2022-07-09T01:57:28;102682.97;;;18.82;65.63
61086;BME280;46967;48.876;2.136;2022-07-09T01:59:53;102668.13;;;18.81;65.43
61086;BME280;46967;48.876;2.136;2022-07-09T02:02:19;102665.69;;;18.75;65.33
61086;BME280;46967;48.876;2.136;2022-07-09T02:04:45;102665.84;;;18.71;65.91
61086;BME280;46967;48.876;2.136;2022-07-09T02:07:12;102657.06;;;18.72;65.75
61086;BME280;46967;48.876;2.136;2022-07-09T02:09:38;102661.59;;;18.67;65.92
61086;BME280;46967;48.876;2.136;2022-07-09T02:12:03;102662.59;;;18.64;66.00
61086;BME280;46967;48.876;2.136;2022-07-09T02:14:30;102651.47;;;18.56;66.08
61086;BME280;46967;48.876;2.136;2022-07-09T02:16:55;102658.50;;;18.55;66.31
61086;BME280;46967;48.876;2.136;2022-07-09T02:19:21;102654.16;;;18.54;65.88
61086;BME280;46967;48.876;2.136;2022-07-09T02:21:46;102652.53;;;18.50;65.94
61086;BME280;46967;48.876;2.136;2022-07-09T02:24:11;102652.63;;;18.47;65.90
61086;BME280;46967;48.876;2.136;2022-07-09T02:26:37;102647.38;;;18.47;65.40
61086;BME280;46967;48.876;2.136;2022-07-09T02:29:02;102648.22;;;18.47;65.64
61086;BME280;46967;48.876;2.136;2022-07-09T02:31:28;102649.25;;;18.43;65.31
61086;BME280;46967;48.876;2.136;2022-07-09T02:33:53;102650.16;;;18.42;65.49
61086;BME280;46967;48.876;2.136;2022-07-09T02:36:19;102650.25;;;18.39;65.57
61086;BME280;46967;48.876;2.136;2022-07-09T02:38:44;102644.31;;;18.34;65.58
61086;BME280;46967;48.876;2.136;2022-07-09T02:41:10;102645.38;;;18.28;65.94
61086;BME280;46967;48.876;2.136;2022-07-09T02:43:35;102646.28;;;18.27;66.11
61086;BME280;46967;48.876;2.136;2022-07-09T02:46:01;102647.19;;;18.26;65.94
61086;BME280;46967;48.876;2.136;2022-07-09T02:48:26;102648.19;;;18.24;65.82
61086;BME280;46967;48.876;2.136;2022-07-09T02:50:52;102640.34;;;18.22;66.15
61086;BME280;46967;48.876;2.136;2022-07-09T02:53:18;102654.47;;;18.18;66.15
61086;BME280;46967;48.876;2.136;2022-07-09T02:55:44;102644.97;;;18.14;66.65
61086;BME280;46967;48.876;2.136;2022-07-09T02:58:10;102651.28;;;18.08;66.92
61086;BME280;46967;48.876;2.136;2022-07-09T03:00:36;102657.50;;;18.06;66.86
61086;BME280;46967;48.876;2.136;2022-07-09T03:03:02;102657.50;;;18.06;66.82
61086;BME280;46967;48.876;2.136;2022-07-09T03:05:28;102654.34;;;17.95;67.57
61086;BME280;46967;48.876;2.136;2022-07-09T03:07:53;102660.66;;;17.89;67.69
61086;BME280;46967;48.876;2.136;2022-07-09T03:10:18;102660.84;;;17.83;67.73
61086;BME280;46967;48.876;2.136;2022-07-09T03:12:44;102654.09;;;17.74;68.10
61086;BME280;46967;48.876;2.136;2022-07-09T03:15:09;102658.41;;;17.77;68.31
61086;BME280;46967;48.876;2.136;2022-07-09T03:17:35;102662.72;;;17.78;68.15
61086;BME280;46967;48.876;2.136;2022-07-09T03:20:00;102659.25;;;17.77;68.29
61086;BME280;46967;48.876;2.136;2022-07-09T03:22:26;102659.25;;;17.77;68.36
61086;BME280;46967;48.876;2.136;2022-07-09T03:24:51;102661.88;;;17.77;68.17
61086;BME280;46967;48.876;2.136;2022-07-09T03:27:17;102657.56;;;17.74;68.36
61086;BME280;46967;48.876;2.136;2022-07-09T03:29:42;102662.84;;;17.73;68.35
61086;BME280;46967;48.876;2.136;2022-07-09T03:32:08;102669.13;;;17.69;68.44
61086;BME280;46967;48.876;2.136;2022-07-09T03:34:33;102676.13;;;17.68;68.36
61086;BME280;46967;48.876;2.136;2022-07-09T03:36:58;102673.72;;;17.62;68.37
61086;BME280;46967;48.876;2.136;2022-07-09T03:39:24;102673.88;;;17.56;68.92
61086;BME280;46967;48.876;2.136;2022-07-09T03:41:50;102674.81;;;17.53;68.76
61086;BME280;46967;48.876;2.136;2022-07-09T03:44:16;102674.78;;;17.55;68.62
61086;BME280;46967;48.876;2.136;2022-07-09T03:46:41;102673.94;;;17.54;68.44
61086;BME280;46967;48.876;2.136;2022-07-09T03:49:06;102689.69;;;17.54;68.95
61086;BME280;46967;48.876;2.136;2022-07-09T03:51:32;102674.06;;;17.50;69.22
61086;BME280;46967;48.876;2.136;2022-07-09T03:53:57;102675.03;;;17.46;69.68
61086;BME280;46967;48.876;2.136;2022-07-09T03:56:22;102674.41;;;17.37;69.54
61086;BME280;46967;48.876;2.136;2022-07-09T03:58:48;102677.22;;;17.31;70.17
61086;BME280;46967;48.876;2.136;2022-07-09T04:01:13;102687.66;;;17.33;69.78
61086;BME280;46967;48.876;2.136;2022-07-09T04:03:39;102686.72;;;17.35;69.57
61086;BME280;46967;48.876;2.136;2022-07-09T04:06:05;102691.94;;;17.37;69.44
61086;BME280;46967;48.876;2.136;2022-07-09T04:08:30;102693.69;;;17.36;69.56
61086;BME280;46967;48.876;2.136;2022-07-09T04:10:55;102692.03;;;17.34;69.66
61086;BME280;46967;48.876;2.136;2022-07-09T04:13:21;102686.94;;;17.28;70.15
61086;BME280;46967;48.876;2.136;2022-07-09T04:15:46;102688.09;;;17.17;70.35
61086;BME280;46967;48.876;2.136;2022-07-09T04:18:14;102697.78;;;17.15;70.81
61086;BME280;46967;48.876;2.136;2022-07-09T04:20:40;102685.59;;;17.13;70.74
61086;BME280;46967;48.876;2.136;2022-07-09T04:23:06;102702.09;;;17.18;70.74
61086;BME280;46967;48.876;2.136;2022-07-09T04:25:31;102689.69;;;17.23;70.73
61086;BME280;46967;48.876;2.136;2022-07-09T04:27:56;102694.34;;;17.13;71.08
61086;BME280;46967;48.876;2.136;2022-07-09T04:30:24;102691.84;;;17.09;71.32
61086;BME280;46967;48.876;2.136;2022-07-09T04:32:50;102688.44;;;17.05;71.49
61086;BME280;46967;48.876;2.136;2022-07-09T04:35:15;102691.75;;;17.12;71.23
61086;BME280;46967;48.876;2.136;2022-07-09T04:37:41;102691.72;;;17.13;71.21
61086;BME280;46967;48.876;2.136;2022-07-09T04:40:07;102683.22;;;17.05;71.20
61086;BME280;46967;48.876;2.136;2022-07-09T04:42:33;102681.41;;;17.07;71.53
61086;BME280;46967;48.876;2.136;2022-07-09T04:44:58;102680.41;;;17.11;71.45
61086;BME280;46967;48.876;2.136;2022-07-09T04:47:23;102682.00;;;17.17;71.36
61086;BME280;46967;48.876;2.136;2022-07-09T04:49:49;102686.31;;;17.19;71.12
61086;BME280;46967;48.876;2.136;2022-07-09T04:52:14;102687.97;;;17.22;71.00
61086;BME280;46967;48.876;2.136;2022-07-09T04:54:44;102690.63;;;17.20;71.00
61086;BME280;46967;48.876;2.136;2022-07-09T04:57:10;102694.13;;;17.21;71.31
61086;BME280;46967;48.876;2.136;2022-07-09T04:59:35;102689.78;;;17.20;71.63
61086;BME280;46967;48.876;2.136;2022-07-09T05:02:00;102695.22;;;17.12;71.76
61086;BME280;46967;48.876;2.136;2022-07-09T05:04:26;102706.69;;;17.10;72.00
61086;BME280;46967;48.876;2.136;2022-07-09T05:06:52;102705.72;;;17.12;72.22
61086;BME280;46967;48.876;2.136;2022-07-09T05:09:17;102699.72;;;17.09;72.18
61086;BME280;46967;48.876;2.136;2022-07-09T05:11:43;102704.84;;;17.13;72.11
61086;BME280;46967;48.876;2.136;2022-07-09T05:14:08;102703.81;;;17.17;71.31
61086;BME280;46967;48.876;2.136;2022-07-09T05:16:33;102701.97;;;17.23;71.19
61086;BME280;46967;48.876;2.136;2022-07-09T05:18:59;102703.56;;;17.27;70.91
61086;BME280;46967;48.876;2.136;2022-07-09T05:21:24;102690.34;;;17.31;71.05
61086;BME280;46967;48.876;2.136;2022-07-09T05:23:50;102685.81;;;17.36;71.32
61086;BME280;46967;48.876;2.136;2022-07-09T05:26:16;102692.69;;;17.41;70.41
61086;BME280;46967;48.876;2.136;2022-07-09T05:28:41;102694.34;;;17.45;69.81
61086;BME280;46967;48.876;2.136;2022-07-09T05:31:06;102693.19;;;17.53;69.12
61086;BME280;46967;48.876;2.136;2022-07-09T05:33:32;102699.16;;;17.59;69.08
61086;BME280;46967;48.876;2.136;2022-07-09T05:35:57;102698.22;;;17.61;69.08
61086;BME280;46967;48.876;2.136;2022-07-09T05:38:23;102685.94;;;17.62;68.87
61086;BME280;46967;48.876;2.136;2022-07-09T05:40:48;102694.72;;;17.62;68.53
61086;BME280;46967;48.876;2.136;2022-07-09T05:43:13;102694.47;;;17.70;68.10
61086;BME280;46967;48.876;2.136;2022-07-09T05:45:39;102682.16;;;17.72;68.14
61086;BME280;46967;48.876;2.136;2022-07-09T05:48:04;102683.69;;;17.79;68.06
61086;BME280;46967;48.876;2.136;2022-07-09T05:50:30;102681.75;;;17.86;67.79
61086;BME280;46967;48.876;2.136;2022-07-09T05:52:55;102679.81;;;17.92;67.52
61086;BME280;46967;48.876;2.136;2022-07-09T05:55:20;102680.47;;;17.99;67.69
61086;BME280;46967;48.876;2.136;2022-07-09T05:57:46;102685.63;;;18.02;67.59
61086;BME280;46967;48.876;2.136;2022-07-09T06:00:11;102682.97;;;18.04;67.48
61086;BME280;46967;48.876;2.136;2022-07-09T06:02:37;102688.03;;;18.10;66.76
61086;BME280;46967;48.876;2.136;2022-07-09T06:05:02;102686.25;;;18.10;66.57
61086;BME280;46967;48.876;2.136;2022-07-09T06:07:28;102681.59;;;18.19;66.16
61086;BME280;46967;48.876;2.136;2022-07-09T06:09:53;102692.34;;;18.11;66.23
61086;BME280;46967;48.876;2.136;2022-07-09T06:12:19;102695.75;;;18.15;66.54
61086;BME280;46967;48.876;2.136;2022-07-09T06:14:44;102688.91;;;18.09;66.42
61086;BME280;46967;48.876;2.136;2022-07-09T06:17:09;102686.81;;;18.20;66.53
61086;BME280;46967;48.876;2.136;2022-07-09T06:19:35;102692.16;;;18.17;66.28
61086;BME280;46967;48.876;2.136;2022-07-09T06:22:02;102691.88;;;18.26;66.12
61086;BME280;46967;48.876;2.136;2022-07-09T06:24:28;102689.03;;;18.33;65.81
61086;BME280;46967;48.876;2.136;2022-07-09T06:26:55;102694.94;;;18.39;65.31
61086;BME280;46967;48.876;2.136;2022-07-09T06:29:21;102697.44;;;18.44;64.98
61086;BME280;46967;48.876;2.136;2022-07-09T06:31:46;102700.25;;;18.38;65.08
61086;BME280;46967;48.876;2.136;2022-07-09T06:34:12;102690.97;;;18.27;65.53
61086;BME280;46967;48.876;2.136;2022-07-09T06:36:38;102691.38;;;18.42;65.59
61086;BME280;46967;48.876;2.136;2022-07-09T06:39:03;102689.19;;;18.55;65.10
61086;BME280;46967;48.876;2.136;2022-07-09T06:41:47;102683.63;;;18.64;64.91
61086;BME280;46967;48.876;2.136;2022-07-09T06:44:13;102680.78;;;18.70;64.56
61086;BME280;46967;48.876;2.136;2022-07-09T06:46:38;102678.94;;;18.72;64.68
61086;BME280;46967;48.876;2.136;2022-07-09T06:49:04;102688.28;;;18.81;64.73
61086;BME280;46967;48.876;2.136;2022-07-09T06:51:29;102695.09;;;18.88;64.55
61086;BME280;46967;48.876;2.136;2022-07-09T06:53:55;102698.72;;;18.84;64.27
61086;BME280;46967;48.876;2.136;2022-07-09T06:56:20;102685.19;;;18.95;64.48
61086;BME280;46967;48.876;2.136;2022-07-09T06:58:46;102690.78;;;19.11;64.18
61086;BME280;46967;48.876;2.136;2022-07-09T07:01:11;102688.31;;;19.06;63.99
61086;BME280;46967;48.876;2.136;2022-07-09T07:03:37;102684.56;;;19.13;64.38
61086;BME280;46967;48.876;2.136;2022-07-09T07:06:02;102690.78;;;19.11;63.73
61086;BME280;46967;48.876;2.136;2022-07-09T07:08:27;102679.59;;;19.29;63.25
61086;BME280;46967;48.876;2.136;2022-07-09T07:10:53;102675.50;;;19.44;63.78
61086;BME280;46967;48.876;2.136;2022-07-09T07:13:18;102677.19;;;19.47;62.72
61086;BME280;46967;48.876;2.136;2022-07-09T07:15:43;102684.91;;;19.51;62.77
61086;BME280;46967;48.876;2.136;2022-07-09T07:18:10;102687.13;;;19.62;62.83
61086;BME280;46967;48.876;2.136;2022-07-09T07:20:36;102670.50;;;19.84;61.95
61086;BME280;46967;48.876;2.136;2022-07-09T07:23:01;102678.59;;;20.01;62.28
61086;BME280;46967;48.876;2.136;2022-07-09T07:25:26;102676.53;;;20.09;61.30
61086;BME280;46967;48.876;2.136;2022-07-09T07:27:52;102676.19;;;20.17;61.01
61086;BME280;46967;48.876;2.136;2022-07-09T07:30:17;102673.06;;;20.30;60.38
61086;BME280;46967;48.876;2.136;2022-07-09T07:32:42;102666.41;;;20.21;59.94
61086;BME280;46967;48.876;2.136;2022-07-09T07:35:08;102671.09;;;20.35;60.07
61086;BME280;46967;48.876;2.136;2022-07-09T07:37:33;102679.97;;;20.54;60.34
61086;BME280;46967;48.876;2.136;2022-07-09T07:39:59;102671.41;;;20.70;59.46
61086;BME280;46967;48.876;2.136;2022-07-09T07:42:24;102671.75;;;20.83;58.63
61086;BME280;46967;48.876;2.136;2022-07-09T07:44:50;102672.00;;;20.97;58.46
61086;BME280;46967;48.876;2.136;2022-07-09T07:47:15;102665.22;;;21.10;58.39
61086;BME280;46967;48.876;2.136;2022-07-09T07:49:40;102670.94;;;21.20;58.11
61086;BME280;46967;48.876;2.136;2022-07-09T07:52:06;102666.91;;;21.32;57.95
61086;BME280;46967;48.876;2.136;2022-07-09T07:54:31;102671.69;;;21.43;57.42
61086;BME280;46967;48.876;2.136;2022-07-09T07:56:58;102662.69;;;21.47;56.88
61086;BME280;46967;48.876;2.136;2022-07-09T07:59:23;102665.56;;;21.61;57.79
61086;BME280;46967;48.876;2.136;2022-07-09T08:01:49;102665.06;;;21.72;56.59
61086;BME280;46967;48.876;2.136;2022-07-09T08:04:14;102665.09;;;21.89;56.24
61086;BME280;46967;48.876;2.136;2022-07-09T08:06:39;102661.75;;;21.86;56.27
61086;BME280;46967;48.876;2.136;2022-07-09T08:09:05;102659.38;;;21.99;55.00
61086;BME280;46967;48.876;2.136;2022-07-09T08:11:30;102663.97;;;22.13;54.55
61086;BME280;46967;48.876;2.136;2022-07-09T08:13:55;102658.03;;;22.07;54.54
61086;BME280;46967;48.876;2.136;2022-07-09T08:16:21;102662.50;;;22.24;54.97
61086;BME280;46967;48.876;2.136;2022-07-09T08:18:46;102655.34;;;22.26;53.61
61086;BME280;46967;48.876;2.136;2022-07-09T08:21:12;102659.88;;;22.42;52.97
61086;BME280;46967;48.876;2.136;2022-07-09T08:23:37;102654.97;;;22.69;51.94
61086;BME280;46967;48.876;2.136;2022-07-09T08:26:24;102648.38;;;22.60;52.62
61086;BME280;46967;48.876;2.136;2022-07-09T08:28:50;102649.44;;;22.74;52.68
61086;BME280;46967;48.876;2.136;2022-07-09T08:31:17;102652.44;;;22.84;52.34
61086;BME280;46967;48.876;2.136;2022-07-09T08:33:43;102650.19;;;22.93;51.70
61086;BME280;46967;48.876;2.136;2022-07-09T08:36:08;102649.72;;;22.85;51.96
61086;BME280;46967;48.876;2.136;2022-07-09T08:38:34;102649.72;;;22.85;50.98
61086;BME280;46967;48.876;2.136;2022-07-09T08:41:00;102645.22;;;23.21;51.17
61086;BME280;46967;48.876;2.136;2022-07-09T08:43:26;102652.91;;;23.25;50.55
61086;BME280;46967;48.876;2.136;2022-07-09T08:45:54;102644.09;;;23.41;50.97
61086;BME280;46967;48.876;2.136;2022-07-09T08:48:21;102637.03;;;23.41;50.81
61086;BME280;46967;48.876;2.136;2022-07-09T08:50:48;102645.22;;;23.52;50.93
61086;BME280;46967;48.876;2.136;2022-07-09T08:53:16;102638.56;;;23.61;50.33
61086;BME280;46967;48.876;2.136;2022-07-09T08:55:42;102629.16;;;23.72;50.40
61086;BME280;46967;48.876;2.136;2022-07-09T08:58:09;102624.53;;;23.91;51.40
61086;BME280;46967;48.876;2.136;2022-07-09T09:00:36;102626.31;;;23.75;48.74
61086;BME280;46967;48.876;2.136;2022-07-09T09:03:02;102620.16;;;23.74;49.10
61086;BME280;46967;48.876;2.136;2022-07-09T09:05:27;102620.75;;;23.95;49.93
61086;BME280;46967;48.876;2.136;2022-07-09T09:07:52;102621.03;;;24.21;48.53
61086;BME280;46967;48.876;2.136;2022-07-09T09:10:24;102611.09;;;24.39;48.79
61086;BME280;46967;48.876;2.136;2022-07-09T09:13:01;102610.88;;;24.58;48.56
61086;BME280;46967;48.876;2.136;2022-07-09T09:15:27;102604.78;;;24.56;46.47
61086;BME280;46967;48.876;2.136;2022-07-09T09:17:53;102602.91;;;24.72;46.53
61086;BME280;46967;48.876;2.136;2022-07-09T09:20:19;102599.41;;;24.57;46.77
61086;BME280;46967;48.876;2.136;2022-07-09T09:22:49;102600.94;;;24.62;47.65
61086;BME280;46967;48.876;2.136;2022-07-09T09:25:19;102601.56;;;24.51;47.04
61086;BME280;46967;48.876;2.136;2022-07-09T09:27:52;102600.34;;;24.85;47.88
61086;BME280;46967;48.876;2.136;2022-07-09T09:30:17;102590.88;;;24.81;46.35
61086;BME280;46967;48.876;2.136;2022-07-09T09:32:43;102594.38;;;24.96;46.08
61086;BME280;46967;48.876;2.136;2022-07-09T09:35:08;102600.13;;;25.03;46.16
61086;BME280;46967;48.876;2.136;2022-07-09T09:37:34;102601.84;;;25.04;45.83
61086;BME280;46967;48.876;2.136;2022-07-09T09:40:08;102605.00;;;24.82;45.74
61086;BME280;46967;48.876;2.136;2022-07-09T09:42:37;102604.13;;;25.10;45.38
61086;BME280;46967;48.876;2.136;2022-07-09T09:45:05;102598.03;;;25.22;45.02
61086;BME280;46967;48.876;2.136;2022-07-09T09:47:32;102599.25;;;25.31;44.79
61086;BME280;46967;48.876;2.136;2022-07-09T09:50:00;102600.41;;;25.27;45.17
61086;BME280;46967;48.876;2.136;2022-07-09T09:52:26;102598.81;;;25.52;44.53
61086;BME280;46967;48.876;2.136;2022-07-09T09:54:52;102611.25;;;25.78;44.16
61086;BME280;46967;48.876;2.136;2022-07-09T09:57:21;102606.28;;;25.86;44.09
61086;BME280;46967;48.876;2.136;2022-07-09T09:59:50;102604.34;;;26.16;43.62
61086;BME280;46967;48.876;2.136;2022-07-09T10:02:19;102596.59;;;26.26;42.27
61086;BME280;46967;48.876;2.136;2022-07-09T10:04:45;102602.97;;;26.23;42.69
61086;BME280;46967;48.876;2.136;2022-07-09T10:07:13;102601.19;;;26.36;42.38
61086;BME280;46967;48.876;2.136;2022-07-09T10:09:39;102601.38;;;26.33;41.75
61086;BME280;46967;48.876;2.136;2022-07-09T10:12:05;102602.53;;;26.55;42.86
61086;BME280;46967;48.876;2.136;2022-07-09T10:14:33;102602.44;;;26.56;43.85
61086;BME280;46967;48.876;2.136;2022-07-09T10:17:14;102595.56;;;26.67;42.02
61086;BME280;46967;48.876;2.136;2022-07-09T10:22:35;102592.41;;;26.99;41.19
61086;BME280;46967;48.876;2.136;2022-07-09T10:25:01;102593.69;;;26.93;40.85
61086;BME280;46967;48.876;2.136;2022-07-09T10:27:26;102593.50;;;26.70;40.56
61086;BME280;46967;48.876;2.136;2022-07-09T10:29:52;102589.63;;;27.00;41.18
61086;BME280;46967;48.876;2.136;2022-07-09T10:32:31;102588.84;;;27.11;39.75
61086;BME280;46967;48.876;2.136;2022-07-09T10:35:00;102587.19;;;27.34;40.00
61086;BME280;46967;48.876;2.136;2022-07-09T10:37:40;102589.28;;;26.68;41.37
61086;BME280;46967;48.876;2.136;2022-07-09T10:40:16;102584.47;;;26.47;41.66
61086;BME280;46967;48.876;2.136;2022-07-09T10:42:43;102582.56;;;26.36;41.27
61086;BME280;46967;48.876;2.136;2022-07-09T10:47:45;102574.34;;;27.15;42.28
61086;BME280;46967;48.876;2.136;2022-07-09T10:50:14;102562.00;;;27.62;41.34
61086;BME280;46967;48.876;2.136;2022-07-09T10:52:40;102568.25;;;27.74;39.01
61086;BME280;46967;48.876;2.136;2022-07-09T10:55:06;102564.44;;;27.65;39.42
61086;BME280;46967;48.876;2.136;2022-07-09T10:57:34;102560.38;;;27.48;38.62
61086;BME280;46967;48.876;2.136;2022-07-09T10:59:59;102558.75;;;27.70;38.14
61086;BME280;46967;48.876;2.136;2022-07-09T11:02:25;102550.94;;;27.56;38.63
61086;BME280;46967;48.876;2.136;2022-07-09T11:04:52;102546.13;;;27.61;38.86
61086;BME280;46967;48.876;2.136;2022-07-09T11:07:22;102542.91;;;27.20;38.71
61086;BME280;46967;48.876;2.136;2022-07-09T11:09:48;102539.03;;;27.48;38.13
61086;BME280;46967;48.876;2.136;2022-07-09T11:12:18;102527.09;;;27.65;38.88
61086;BME280;46967;48.876;2.136;2022-07-09T11:14:47;102537.63;;;27.07;38.89
61086;BME280;46967;48.876;2.136;2022-07-09T11:17:18;102543.28;;;27.27;38.89
61086;BME280;46967;48.876;2.136;2022-07-09T11:19:44;102533.06;;;27.69;38.30
61086;BME280;46967;48.876;2.136;2022-07-09T11:22:10;102524.31;;;27.67;38.39
61086;BME280;46967;48.876;2.136;2022-07-09T11:24:35;102529.69;;;27.43;38.65
61086;BME280;46967;48.876;2.136;2022-07-09T11:27:02;102532.88;;;27.48;38.66
61086;BME280;46967;48.876;2.136;2022-07-09T11:29:28;102530.94;;;27.86;41.07
61086;BME280;46967;48.876;2.136;2022-07-09T11:31:53;102520.63;;;27.45;38.05
61086;BME280;46967;48.876;2.136;2022-07-09T11:34:19;102513.56;;;27.80;38.07
61086;BME280;46967;48.876;2.136;2022-07-09T11:36:45;102509.66;;;28.19;37.79
61086;BME280;46967;48.876;2.136;2022-07-09T11:39:23;102502.50;;;28.09;38.15
61086;BME280;46967;48.876;2.136;2022-07-09T11:41:49;102521.59;;;27.44;38.62
61086;BME280;46967;48.876;2.136;2022-07-09T11:44:31;102519.66;;;26.98;38.21
61086;BME280;46967;48.876;2.136;2022-07-09T11:47:05;102513.38;;;26.86;38.11
61086;BME280;46967;48.876;2.136;2022-07-09T11:49:39;102511.28;;;27.40;36.87
61086;BME280;46967;48.876;2.136;2022-07-09T11:52:19;102507.47;;;28.02;37.02
61086;BME280;46967;48.876;2.136;2022-07-09T11:55:06;102499.59;;;28.23;36.08
61086;BME280;46967;48.876;2.136;2022-07-09T11:57:35;102495.94;;;28.47;36.02
61086;BME280;46967;48.876;2.136;2022-07-09T12:00:04;102501.28;;;28.13;36.94
61086;BME280;46967;48.876;2.136;2022-07-09T12:02:32;102488.34;;;27.61;37.47
61086;BME280;46967;48.876;2.136;2022-07-09T12:04:59;102500.53;;;27.53;37.63
61086;BME280;46967;48.876;2.136;2022-07-09T12:07:25;102503.38;;;27.14;37.82
61086;BME280;46967;48.876;2.136;2022-07-09T12:12:29;102488.53;;;28.16;35.99
61086;BME280;46967;48.876;2.136;2022-07-09T12:14:55;102488.81;;;28.59;35.58
61086;BME280;46967;48.876;2.136;2022-07-09T12:17:26;102486.38;;;28.99;34.99
61086;BME280;46967;48.876;2.136;2022-07-09T12:19:52;102483.81;;;29.41;35.41
61086;BME280;46967;48.876;2.136;2022-07-09T12:22:18;102479.41;;;29.73;34.59
61086;BME280;46967;48.876;2.136;2022-07-09T12:24:44;102471.38;;;29.73;32.70
61086;BME280;46967;48.876;2.136;2022-07-09T12:27:09;102474.44;;;28.82;34.79
61086;BME280;46967;48.876;2.136;2022-07-09T12:29:35;102481.75;;;28.35;34.96
61086;BME280;46967;48.876;2.136;2022-07-09T12:32:01;102471.34;;;28.09;35.19
61086;BME280;46967;48.876;2.136;2022-07-09T12:34:26;102476.63;;;28.54;34.84
61086;BME280;46967;48.876;2.136;2022-07-09T12:36:52;102467.06;;;29.07;34.22
61086;BME280;46967;48.876;2.136;2022-07-09T12:39:17;102457.09;;;29.41;33.62
61086;BME280;46967;48.876;2.136;2022-07-09T12:41:43;102459.50;;;29.44;32.74
61086;BME280;46967;48.876;2.136;2022-07-09T12:44:08;102457.06;;;29.62;32.88
61086;BME280;46967;48.876;2.136;2022-07-09T12:46:33;102450.19;;;29.06;33.57
61086;BME280;46967;48.876;2.136;2022-07-09T12:48:59;102449.06;;;28.77;34.06
61086;BME280;46967;48.876;2.136;2022-07-09T12:51:26;102449.28;;;29.17;33.54
61086;BME280;46967;48.876;2.136;2022-07-09T12:53:51;102450.25;;;29.70;33.76